createdAt,value
2023-05-11T00:06:55.192Z,73.63
2023-05-11T00:16:57.203Z,73.71
2023-05-11T00:26:59.309Z,73.12
2023-05-11T00:37:01.323Z,73.16
2023-05-11T00:47:03.873Z,71.84
2023-05-11T00:57:06.150Z,72.81
2023-05-11T01:07:19.656Z,74.11
2023-05-11T01:17:36.059Z,72.98
2023-05-11T01:28:10.527Z,72.99
2023-05-11T01:38:14.628Z,73.15
2023-05-11T01:48:19.211Z,71.96
2023-05-11T01:58:21.752Z,74.10
2023-05-11T02:08:25.646Z,72.37
2023-05-11T02:18:28.457Z,72.77
2023-05-11T02:28:34.800Z,72.54
2023-05-11T02:38:39.011Z,72.72
2023-05-11T02:48:47.351Z,75.69
2023-05-11T02:58:51.421Z,74.43
2023-05-11T03:08:57.835Z,72.56
2023-05-11T03:19:02.134Z,73.64
2023-05-11T03:29:07.419Z,73.31
2023-05-11T03:39:11.538Z,74.04
2023-05-11T03:49:15.611Z,73.42
2023-05-11T03:59:18.180Z,73.50
2023-05-11T04:09:20.293Z,72.62
2023-05-11T04:19:22.491Z,73.15
2023-05-11T04:29:25.077Z,72.54
2023-05-11T04:39:27.086Z,74.12
2023-05-11T04:49:29.304Z,74.04
2023-05-11T04:59:31.509Z,74.05
2023-05-11T05:09:33.668Z,72.75
2023-05-11T05:19:35.937Z,74.26
2023-05-11T05:29:38.254Z,72.38
2023-05-11T05:39:40.994Z,73.86
2023-05-11T05:49:43.172Z,71.72
2023-05-11T05:59:45.349Z,73.55
2023-05-11T06:09:48.275Z,71.77
2023-05-11T06:19:50.445Z,73.76
2023-05-11T06:29:57.642Z,72.21
2023-05-11T06:40:03.184Z,72.23
2023-05-11T06:50:05.922Z,71.09
2023-05-11T07:00:08.867Z,70.25
2023-05-11T07:10:10.960Z,70.33
2023-05-11T07:20:13.354Z,72.87
2023-05-11T07:30:17.345Z,69.27
2023-05-11T07:40:20.965Z,69.78
2023-05-11T07:50:24.683Z,68.34
2023-05-11T08:00:27.565Z,66.92
2023-05-11T08:10:29.629Z,67.25
2023-05-11T08:20:31.648Z,62.72
2023-05-11T08:30:33.825Z,59.69
2023-05-11T08:40:36.265Z,61.31
2023-05-11T08:50:38.399Z,57.47
2023-05-11T09:00:45.321Z,59.77
2023-05-11T09:11:06.517Z,58.21
2023-05-11T09:21:08.748Z,57.93
2023-05-11T09:31:10.782Z,60.72
2023-05-11T09:41:19.954Z,56.98
2023-05-11T09:51:32.358Z,57.77
2023-05-11T10:01:34.923Z,54.94
2023-05-11T10:11:38.743Z,55.74
2023-05-11T10:21:41.120Z,54.11
2023-05-11T10:31:44.439Z,57.33
2023-05-11T10:41:55.705Z,53.40
2023-05-11T10:52:09.479Z,56.34
2023-05-11T11:02:11.814Z,53.88
2023-05-11T11:12:14.326Z,55.29
2023-05-11T11:22:34.987Z,54.22
2023-05-11T11:32:37.385Z,53.28
2023-05-11T11:42:41.961Z,55.88
2023-05-11T11:52:44.072Z,50.48
2023-05-11T12:02:46.320Z,53.57
2023-05-11T12:12:50.558Z,56.08
2023-05-11T12:22:53.560Z,58.58
2023-05-11T12:32:57.491Z,55.67
2023-05-11T12:43:00.587Z,56.42
2023-05-11T12:53:19.062Z,58.75
2023-05-11T13:03:25.899Z,67.99
2023-05-11T13:13:28.756Z,69.45
2023-05-11T13:23:31.847Z,71.30
2023-05-11T13:43:36.622Z,72.11
2023-05-11T13:53:38.675Z,73.61
2023-05-11T14:03:40.817Z,74.09
2023-05-11T14:13:42.936Z,71.27
2023-05-11T14:23:56.834Z,72.45
2023-05-11T14:34:06.558Z,74.06
2023-05-11T14:44:09.923Z,74.79
2023-05-11T14:54:11.972Z,74.93
2023-05-11T15:04:15.584Z,76.28
2023-05-11T15:14:17.840Z,73.83
2023-05-11T15:24:19.996Z,72.39
2023-05-11T15:34:22.089Z,70.96
2023-05-11T15:44:24.349Z,74.25
2023-05-11T15:54:26.909Z,73.03
2023-05-11T16:04:28.950Z,77.43
2023-05-11T16:14:31.308Z,76.19
2023-05-11T16:24:34.609Z,73.59
2023-05-11T16:34:36.988Z,71.78
2023-05-11T16:44:39.167Z,74.61
2023-05-11T16:54:41.374Z,71.89
2023-05-11T17:04:43.498Z,72.01
2023-05-11T17:14:45.533Z,72.44
2023-05-11T17:24:47.623Z,71.45
2023-05-11T17:34:49.708Z,74.55
2023-05-11T17:44:51.898Z,73.15
2023-05-11T17:54:54.101Z,71.15
2023-05-11T18:04:56.314Z,72.89
2023-05-11T18:14:59.737Z,74.83
2023-05-11T18:25:02.366Z,75.33
2023-05-11T18:35:04.734Z,74.56
2023-05-11T18:45:07.723Z,75.14
2023-05-11T18:55:10.215Z,75.88
2023-05-11T19:05:12.770Z,74.02
2023-05-11T19:15:15.290Z,75.89
2023-05-11T19:25:17.610Z,74.58
2023-05-11T19:35:20.315Z,76.71
2023-05-11T19:45:22.341Z,76.45
2023-05-11T19:55:24.380Z,76.08
2023-05-11T20:05:26.809Z,74.69
2023-05-11T20:15:28.832Z,74.06
2023-05-11T20:25:30.907Z,74.57
2023-05-11T20:35:33.860Z,75.49
2023-05-11T20:45:36.166Z,76.06
2023-05-11T20:55:38.221Z,75.44
2023-05-11T21:05:40.586Z,73.91
2023-05-11T21:15:42.675Z,75.79
2023-05-11T21:25:44.774Z,75.89
2023-05-11T21:35:47.639Z,76.11
2023-05-11T21:45:50.302Z,76.95
2023-05-11T21:55:52.376Z,76.30
2023-05-11T22:05:54.405Z,78.24
2023-05-11T22:15:56.536Z,76.46
2023-05-11T22:25:58.687Z,78.11
2023-05-11T22:36:00.842Z,78.31
2023-05-11T22:46:04.038Z,78.71
2023-05-11T22:56:07.298Z,79.96
2023-05-11T23:06:09.496Z,77.99
2023-05-11T23:16:11.840Z,78.86
2023-05-11T23:26:13.913Z,78.17
2023-05-11T23:36:16.226Z,80.07
2023-05-11T23:46:18.298Z,79.70
2023-05-11T23:56:20.350Z,78.02
